Time;durP1;ratioP1;P1;durP2;ratioP2;P2;SDS_P1;SDS_P2;PMS_P1;PMS_P2;Temp;Humidity;BMP_temperature;BMP_pressure;BME280_temperature;BME280_humidity;BME280_pressure;Samples;Min_cycle;Max_cycle;Signal;HPM_P1;HPM_P2
2023/04/22 06:36:22;;;;;;;5.00;4.40;;;9.40;99.90;;;;;;6204983;22;20279;-71
2023/04/22 06:38:49;;;;;;;5.07;4.57;;;9.20;99.90;;;;;;6216435;23;20177;-69
2023/04/22 06:41:16;;;;;;;4.10;3.67;;;9.20;99.90;;;;;;6216884;23;20178;-69
2023/04/22 06:43:43;;;;;;;3.92;3.45;;;9.30;99.90;;;;;;6216210;23;20184;-70
2023/04/22 06:46:10;;;;;;;3.55;3.22;;;9.50;99.90;;;;;;6216122;23;20204;-70
2023/04/22 06:48:37;;;;;;;4.00;3.70;;;9.80;99.90;;;;;;6215965;23;20665;-70
2023/04/22 06:51:04;;;;;;;4.15;3.85;;;10.00;99.90;;;;;;6216275;23;20638;-70
2023/04/22 06:53:32;;;;;;;5.53;4.10;;;10.10;99.90;;;;;;6216210;23;20557;-70
2023/04/22 06:55:58;;;;;;;4.03;3.72;;;10.50;99.90;;;;;;6216142;23;20200;-70
2023/04/22 06:58:25;;;;;;;3.92;3.63;;;11.20;99.90;;;;;;6216312;23;20188;-70
2023/04/22 07:00:52;;;;;;;3.13;2.92;;;12.40;99.90;;;;;;6216377;23;20179;-70
2023/04/22 07:03:18;;;;;;;3.67;3.38;;;13.40;99.90;;;;;;6216126;23;20177;-70
2023/04/22 07:05:47;;;;;;;3.40;3.15;;;14.30;99.90;;;;;;6215841;23;20752;-70
2023/04/22 07:08:14;;;;;;;3.25;2.95;;;15.50;99.90;;;;;;6216077;23;20172;-71
2023/04/22 07:10:42;;;;;;;2.90;2.70;;;16.60;99.90;;;;;;6215978;23;20513;-72
2023/04/22 07:13:08;;;;;;;2.95;2.83;;;18.10;99.90;;;;;;6215963;23;20172;-72
2023/04/22 07:15:35;;;;;;;3.10;2.83;;;19.30;99.90;;;;;;6215872;23;20192;-72
2023/04/22 07:18:02;;;;;;;3.13;2.90;;;20.70;90.80;;;;;;6216038;23;20179;-72
2023/04/22 07:20:28;;;;;;;3.20;3.00;;;21.60;54.20;;;;;;6216172;23;20168;-71
2023/04/22 07:22:55;;;;;;;3.00;2.80;;;22.30;60.30;;;;;;6215819;23;20223;-70
2023/04/22 07:25:22;;;;;;;3.13;2.83;;;23.20;51.60;;;;;;6215684;23;20196;-71
2023/04/22 07:27:50;;;;;;;2.92;2.65;;;24.20;51.40;;;;;;6215181;23;20646;-72
2023/04/22 07:30:17;;;;;;;2.70;2.58;;;25.20;42.20;;;;;;6215607;23;20254;-72
2023/04/22 07:32:43;;;;;;;3.85;3.40;;;25.70;43.40;;;;;;6215498;23;20623;-71
2023/04/22 07:35:10;;;;;;;3.55;3.35;;;26.60;41.20;;;;;;6215837;23;20172;-71
2023/04/22 07:37:37;;;;;;;4.72;4.32;;;27.30;38.40;;;;;;6215811;23;20179;-72
2023/04/22 07:40:04;;;;;;;3.83;3.53;;;27.60;38.60;;;;;;6215722;23;20485;-73
2023/04/22 07:42:31;;;;;;;4.75;4.43;;;28.30;39.70;;;;;;6216211;23;20211;-73
2023/04/22 07:44:59;;;;;;;3.20;3.03;;;28.70;39.50;;;;;;6215900;23;20555;-72
2023/04/22 07:47:26;;;;;;;3.10;2.92;;;29.50;37.50;;;;;;6215982;23;20175;-73
2023/04/22 07:49:52;;;;;;;3.22;3.03;;;29.60;36.60;;;;;;6216005;23;20192;-72
2023/04/22 07:52:19;;;;;;;2.78;2.67;;;29.70;35.60;;;;;;6216067;23;20180;-72
2023/04/22 07:54:46;;;;;;;3.05;2.80;;;30.00;34.10;;;;;;6215957;23;20172;-73
2023/04/22 07:57:13;;;;;;;2.38;2.28;;;30.20;33.30;;;;;;6216077;23;20196;-73
2023/04/22 07:59:40;;;;;;;1.77;1.70;;;30.80;30.40;;;;;;6216148;23;20172;-74
2023/04/22 08:02:08;;;;;;;2.47;2.38;;;31.20;31.90;;;;;;6215685;23;20225;-73
2023/04/22 08:04:35;;;;;;;1.85;1.75;;;31.30;29.70;;;;;;6216206;23;20509;-73
2023/04/22 08:07:02;;;;;;;2.17;2.08;;;31.10;32.10;;;;;;6215863;23;20191;-73
2023/04/22 08:09:29;;;;;;;1.83;1.75;;;31.00;31.10;;;;;;6215801;23;20176;-73
2023/04/22 08:11:57;;;;;;;2.00;1.90;;;30.50;31.50;;;;;;6215908;23;20208;-73
2023/04/22 08:14:24;;;;;;;1.65;1.58;;;29.80;31.40;;;;;;6215815;23;20183;-73
2023/04/22 08:16:51;;;;;;;4.05;1.90;;;28.90;31.70;;;;;;6215666;23;20215;-73
2023/04/22 08:19:20;;;;;;;2.00;1.90;;;28.50;33.20;;;;;;6215600;23;20178;-73
2023/04/22 08:21:47;;;;;;;1.55;1.55;;;27.10;38.10;;;;;;6215509;23;20203;-71
2023/04/22 08:24:14;;;;;;;1.55;1.52;;;26.80;40.10;;;;;;6215603;23;20176;-74
2023/04/22 08:26:41;;;;;;;1.45;1.40;;;26.60;42.30;;;;;;6215584;23;20254;-74
2023/04/22 08:29:07;;;;;;;1.00;1.00;;;26.10;44.90;;;;;;6215443;23;20184;-72
2023/04/22 08:31:34;;;;;;;1.08;1.08;;;26.00;46.90;;;;;;6215159;23;20200;-72
2023/04/22 08:34:01;;;;;;;1.13;0.80;;;25.80;48.20;;;;;;6215448;23;20172;-72
2023/04/22 08:36:30;;;;;;;0.82;0.82;;;25.50;51.50;;;;;;6214915;23;20203;-73
2023/04/22 08:38:57;;;;;;;1.20;1.08;;;24.80;52.70;;;;;;6215019;23;20231;-72
2023/04/22 08:41:24;;;;;;;0.98;0.98;;;24.10;41.70;;;;;;6216979;23;20227;-70
2023/04/22 08:43:52;;;;;;;1.10;1.10;;;23.50;42.60;;;;;;6217424;23;20172;-70
2023/04/22 08:46:19;;;;;;;1.00;1.00;;;23.20;44.70;;;;;;6217418;23;20200;-71
2023/04/22 08:48:47;;;;;;;0.85;0.85;;;23.00;45.10;;;;;;6217416;23;20172;-70
2023/04/22 08:51:16;;;;;;;0.95;0.95;;;22.80;45.60;;;;;;6216940;23;20699;-70
2023/04/22 08:53:45;;;;;;;1.10;1.10;;;22.30;45.90;;;;;;6217495;23;20244;-71
2023/04/22 08:56:13;;;;;;;2.30;1.38;;;21.70;49.60;;;;;;6217335;23;20199;-71
2023/04/22 08:58:41;;;;;;;1.20;1.15;;;21.10;52.50;;;;;;6217460;23;20179;-71
2023/04/22 09:01:08;;;;;;;1.15;1.10;;;20.90;59.40;;;;;;6216912;23;20633;-70
2023/04/22 09:03:38;;;;;;;1.23;1.23;;;20.90;63.90;;;;;;6217115;23;20545;-71
2023/04/22 09:06:07;;;;;;;0.95;0.95;;;20.80;61.80;;;;;;6217256;23;20203;-70
2023/04/22 09:08:34;;;;;;;1.08;1.08;;;20.90;60.20;;;;;;6218312;23;20493;-70
2023/04/22 09:11:03;;;;;;;1.10;1.10;;;20.90;59.10;;;;;;6216864;23;20668;-71
2023/04/22 09:13:30;;;;;;;1.00;1.00;;;20.90;57.40;;;;;;6217298;23;20176;-71
2023/04/22 09:15:56;;;;;;;1.13;1.13;;;20.80;57.30;;;;;;6217184;23;20197;-71
2023/04/22 09:18:23;;;;;;;1.23;1.13;;;20.60;56.40;;;;;;6217331;23;20226;-71
2023/04/22 09:20:54;;;;;;;0.88;0.88;;;20.50;54.30;;;;;;6216838;23;20173;-69
2023/04/22 09:23:21;;;;;;;1.23;1.02;;;20.40;52.90;;;;;;6217166;23;20215;-69
2023/04/22 09:25:47;;;;;;;1.10;1.00;;;20.30;54.60;;;;;;6217113;23;20196;-70
2023/04/22 09:28:19;;;;;;;1.10;1.10;;;20.30;55.80;;;;;;6217526;23;20176;-70
2023/04/22 09:30:46;;;;;;;1.10;1.10;;;20.30;55.10;;;;;;6217657;23;20180;-70
2023/04/22 09:33:13;;;;;;;1.00;1.00;;;20.30;59.40;;;;;;6217385;23;20176;-71
2023/04/22 09:35:41;;;;;;;2.38;2.28;;;20.30;56.90;;;;;;6217072;23;20279;-71
2023/04/22 09:38:10;;;;;;;1.92;1.90;;;20.30;55.20;;;;;;6217003;23;20300;-72
2023/04/22 09:40:38;;;;;;;2.35;1.45;;;20.20;52.80;;;;;;6217266;23;20173;-71
2023/04/22 09:43:07;;;;;;;1.20;1.20;;;20.20;55.70;;;;;;6216969;23;20176;-70
2023/04/22 09:45:37;;;;;;;1.40;1.35;;;20.20;56.90;;;;;;6217216;23;20204;-70
2023/04/22 09:48:07;;;;;;;1.52;1.42;;;20.30;55.00;;;;;;6218107;23;20187;-70
2023/04/22 09:50:34;;;;;;;1.10;1.10;;;20.30;56.40;;;;;;6216767;23;20526;-70
2023/04/22 09:53:02;;;;;;;1.42;1.42;;;20.50;56.40;;;;;;6217002;23;20176;-71
2023/04/22 09:55:32;;;;;;;1.25;1.15;;;20.50;54.20;;;;;;6216439;23;20673;-71
2023/04/22 09:58:06;;;;;;;0.90;0.90;;;20.60;54.20;;;;;;6216896;23;20176;-71
2023/04/22 10:00:36;;;;;;;1.25;1.25;;;20.70;52.30;;;;;;6217106;23;20656;-71
2023/04/22 10:03:03;;;;;;;1.10;1.10;;;20.90;50.20;;;;;;6217064;23;20172;-71
2023/04/22 10:05:30;;;;;;;1.00;1.00;;;20.90;47.70;;;;;;6216919;23;20191;-70
2023/04/22 10:07:57;;;;;;;0.90;0.90;;;21.10;48.00;;;;;;6216865;23;20544;-71
2023/04/22 10:10:24;;;;;;;0.90;0.90;;;21.20;43.70;;;;;;6216556;23;20195;-71
2023/04/22 10:12:52;;;;;;;0.85;0.85;;;21.30;43.30;;;;;;6217163;23;20176;-70
2023/04/22 10:15:19;;;;;;;0.85;0.85;;;21.50;40.60;;;;;;6216799;23;20176;-70
2023/04/22 10:17:47;;;;;;;1.00;1.00;;;21.30;38.80;;;;;;6216614;23;20490;-71
2023/04/22 10:20:17;;;;;;;0.70;0.70;;;21.30;39.00;;;;;;6216631;23;20184;-71
2023/04/22 10:22:44;;;;;;;0.88;0.88;;;21.20;38.80;;;;;;6216633;23;20183;-71
2023/04/22 10:25:12;;;;;;;1.08;0.93;;;21.10;38.60;;;;;;6216541;23;20180;-71
2023/04/22 10:27:40;;;;;;;0.80;0.80;;;21.10;38.10;;;;;;6216463;23;20195;-71
2023/04/22 10:30:08;;;;;;;0.90;0.90;;;21.10;38.10;;;;;;6220942;23;20184;-71
2023/04/22 10:32:35;;;;;;;0.70;0.70;;;21.20;37.80;;;;;;6221858;23;20176;-71
2023/04/22 10:35:12;;;;;;;1.15;1.05;;;21.40;37.40;;;;;;6219189;23;20176;-71
2023/04/22 10:37:42;;;;;;;0.90;0.90;;;21.60;35.60;;;;;;6218401;23;20164;-72
2023/04/22 10:40:12;;;;;;;0.70;0.70;;;21.60;35.80;;;;;;6217392;23;20163;-71
2023/04/22 10:42:41;;;;;;;0.70;0.70;;;21.60;34.70;;;;;;6216992;23;20156;-71
2023/04/22 10:45:11;;;;;;;1.00;1.00;;;21.40;36.20;;;;;;6216617;23;20211;-71
2023/04/22 10:47:40;;;;;;;0.60;0.60;;;21.40;35.00;;;;;;6216344;23;20176;-71
2023/04/22 10:50:14;;;;;;;1.05;0.98;;;21.40;35.30;;;;;;6216221;23;20231;-71
2023/04/22 10:52:42;;;;;;;0.90;0.90;;;21.30;33.20;;;;;;6216116;23;20153;-71
2023/04/22 10:55:09;;;;;;;1.10;1.00;;;21.20;35.30;;;;;;6216178;23;20183;-71
2023/04/22 10:57:41;;;;;;;0.70;0.70;;;21.30;35.70;;;;;;6216404;23;20176;-71
2023/04/22 11:00:39;;;;;;;0.73;0.73;;;21.30;34.80;;;;;;6216327;23;20160;-72
2023/04/22 11:03:17;;;;;;;0.75;0.75;;;21.30;36.00;;;;;;6218387;23;20160;-72
2023/04/22 11:05:45;;;;;;;0.95;0.60;;;21.50;37.70;;;;;;6216287;23;20672;-70
2023/04/22 11:08:16;;;;;;;1.70;0.73;;;21.60;36.40;;;;;;6216220;23;20227;-70
2023/04/22 11:10:46;;;;;;;1.60;1.00;;;21.70;35.10;;;;;;6215708;23;20609;-70
2023/04/22 11:13:15;;;;;;;0.70;0.70;;;21.80;35.60;;;;;;6216268;23;20203;-70
2023/04/22 11:15:47;;;;;;;0.70;0.70;;;21.80;36.60;;;;;;6217944;23;20196;-70
2023/04/22 11:18:18;;;;;;;2.83;1.00;;;21.80;35.70;;;;;;6224907;23;20172;-70
2023/04/22 11:20:49;;;;;;;0.85;0.85;;;21.60;35.20;;;;;;6224192;23;20161;-70
2023/04/22 11:23:24;;;;;;;0.75;0.75;;;21.50;36.70;;;;;;6224196;23;20167;-71
2023/04/22 11:25:56;;;;;;;1.10;1.00;;;21.60;37.00;;;;;;6224876;23;20514;-72
2023/04/22 11:28:23;;;;;;;1.02;1.02;;;21.70;36.40;;;;;;6223868;23;20498;-71
2023/04/22 11:30:51;;;;;;;0.73;0.73;;;21.70;36.40;;;;;;6223470;23;20192;-70
2023/04/22 11:33:19;;;;;;;0.90;0.90;;;21.80;35.60;;;;;;6224003;23;20542;-71
2023/04/22 11:35:50;;;;;;;4.13;1.98;;;21.90;35.00;;;;;;6223254;23;20192;-71
2023/04/22 11:38:18;;;;;;;5.32;1.55;;;22.10;34.70;;;;;;6224472;23;20255;-72
2023/04/22 11:40:45;;;;;;;1.10;1.10;;;22.30;32.10;;;;;;6223863;23;20176;-71
2023/04/22 11:43:12;;;;;;;0.70;0.70;;;22.30;30.60;;;;;;6223027;23;20160;-70
2023/04/22 11:45:40;;;;;;;0.88;0.82;;;22.20;29.60;;;;;;6217886;23;20203;-71
2023/04/22 11:48:08;;;;;;;2.60;0.98;;;22.20;29.60;;;;;;6216502;23;20172;-71
2023/04/22 11:50:38;;;;;;;0.95;0.93;;;22.30;29.70;;;;;;6223650;23;20183;-72
2023/04/22 11:53:14;;;;;;;0.93;0.93;;;22.20;29.10;;;;;;6223899;23;20179;-70
2023/04/22 11:55:42;;;;;;;0.90;0.90;;;22.40;28.90;;;;;;6223158;23;20271;-71
2023/04/22 11:58:11;;;;;;;0.70;0.70;;;22.50;28.60;;;;;;6222697;23;20176;-71
2023/04/22 12:00:41;;;;;;;0.68;0.68;;;22.50;27.60;;;;;;6222779;23;20172;-71
2023/04/22 12:03:14;;;;;;;1.27;0.90;;;22.50;25.90;;;;;;6220880;23;20720;-71
2023/04/22 12:05:43;;;;;;;5.38;2.22;;;22.50;25.20;;;;;;6223122;23;20188;-71
2023/04/22 12:08:13;;;;;;;2.65;1.13;;;22.50;24.90;;;;;;6223054;23;20173;-72
2023/04/22 12:10:43;;;;;;;2.47;1.20;;;22.50;25.20;;;;;;6221550;23;20160;-71
2023/04/22 12:13:11;;;;;;;2.17;0.80;;;22.50;25.70;;;;;;6220832;23;20311;-71
2023/04/22 12:15:43;;;;;;;0.98;0.90;;;22.50;25.50;;;;;;6222085;23;20196;-71
2023/04/22 12:18:11;;;;;;;0.80;0.80;;;22.50;24.60;;;;;;6221869;23;20219;-69
2023/04/22 12:20:39;;;;;;;1.00;1.00;;;22.30;25.10;;;;;;6220960;23;20497;-68
2023/04/22 12:23:13;;;;;;;2.10;1.08;;;22.10;25.90;;;;;;6217894;23;20633;-69
2023/04/22 12:25:40;;;;;;;1.17;1.08;;;22.00;25.60;;;;;;6217923;23;20223;-70
2023/04/22 12:28:07;;;;;;;0.82;0.82;;;21.90;26.10;;;;;;6217753;23;20180;-70
2023/04/22 12:30:34;;;;;;;0.90;0.90;;;21.80;27.50;;;;;;6217851;23;20172;-69
2023/04/22 12:33:00;;;;;;;1.02;0.93;;;21.80;29.70;;;;;;6218391;23;20180;-70
2023/04/22 12:35:27;;;;;;;1.08;1.00;;;21.90;32.70;;;;;;6217121;23;20514;-70
2023/04/22 12:37:54;;;;;;;0.90;0.90;;;21.90;31.90;;;;;;6217351;23;20188;-70
2023/04/22 12:40:22;;;;;;;0.77;0.77;;;21.90;31.00;;;;;;6222092;23;20161;-70
2023/04/22 12:42:50;;;;;;;0.98;0.80;;;21.80;30.80;;;;;;6217723;23;20622;-70
2023/04/22 12:45:17;;;;;;;1.50;1.40;;;21.60;31.70;;;;;;6220679;23;20199;-71
2023/04/22 12:47:45;;;;;;;2.03;1.30;;;21.50;30.80;;;;;;6221207;23;20191;-72
2023/04/22 12:50:13;;;;;;;1.35;1.30;;;21.40;32.30;;;;;;6220610;23;20203;-72
2023/04/22 12:52:40;;;;;;;1.98;1.17;;;21.40;32.60;;;;;;6221572;23;20653;-72
2023/04/22 12:55:08;;;;;;;1.20;1.20;;;21.60;33.40;;;;;;6222519;23;20684;-70
2023/04/22 12:57:37;;;;;;;1.77;1.30;;;21.60;33.40;;;;;;6222149;23;20533;-72
2023/04/22 13:00:05;;;;;;;1.13;1.08;;;21.70;33.50;;;;;;6221579;23;20641;-73
2023/04/22 13:02:33;;;;;;;1.00;1.00;;;21.80;33.40;;;;;;6221244;23;20172;-72
2023/04/22 13:05:00;;;;;;;1.15;1.15;;;22.00;33.80;;;;;;6223645;23;20219;-72
2023/04/22 13:07:27;;;;;;;0.70;0.70;;;22.10;34.00;;;;;;6220596;23;20653;-73
2023/04/22 13:09:54;;;;;;;0.90;0.90;;;22.30;35.30;;;;;;6222062;22;20169;-67
2023/04/22 13:12:21;;;;;;;0.98;0.98;;;22.50;35.40;;;;;;6217777;23;20193;-68
2023/04/22 13:14:49;;;;;;;1.02;1.00;;;22.70;35.90;;;;;;6217429;23;20183;-68
2023/04/22 13:17:15;;;;;;;1.13;1.00;;;22.70;34.50;;;;;;6217047;23;20180;-68
2023/04/22 13:19:42;;;;;;;0.85;0.80;;;22.90;34.70;;;;;;6217004;23;20247;-68
2023/04/22 13:22:09;;;;;;;0.90;0.90;;;23.10;34.60;;;;;;6216760;23;20188;-68
2023/04/22 13:24:36;;;;;;;1.05;1.00;;;23.10;34.60;;;;;;6217002;23;20179;-68
2023/04/22 13:27:02;;;;;;;0.93;0.93;;;23.20;32.70;;;;;;6216547;23;20183;-68
2023/04/22 13:29:29;;;;;;;1.15;1.08;;;23.20;32.00;;;;;;6216715;23;20640;-68
2023/04/22 13:31:57;;;;;;;1.48;1.35;;;23.30;31.70;;;;;;6216751;23;20204;-68
2023/04/22 13:34:24;;;;;;;0.90;0.90;;;23.30;30.60;;;;;;6216695;23;20641;-68
2023/04/22 13:36:51;;;;;;;1.00;1.00;;;23.10;31.30;;;;;;6216858;23;20212;-68
2023/04/22 13:39:17;;;;;;;1.10;1.10;;;22.70;32.00;;;;;;6216510;23;20180;-68
2023/04/22 13:41:44;;;;;;;0.85;0.85;;;22.60;33.40;;;;;;6216807;23;20188;-68
2023/04/22 13:44:12;;;;;;;1.33;1.23;;;22.70;33.10;;;;;;6216891;23;20172;-69
2023/04/22 13:46:39;;;;;;;1.13;1.05;;;22.80;32.60;;;;;;6216797;23;20227;-69
2023/04/22 13:49:07;;;;;;;0.90;0.90;;;22.80;33.70;;;;;;6216563;23;20668;-69
2023/04/22 13:51:36;;;;;;;1.02;1.02;;;22.70;33.70;;;;;;6216772;23;20192;-68
2023/04/22 13:54:03;;;;;;;1.75;0.80;;;22.60;33.60;;;;;;6217328;23;20259;-68
2023/04/22 13:56:30;;;;;;;0.70;0.70;;;22.50;33.40;;;;;;6217022;23;20214;-68
2023/04/22 13:58:57;;;;;;;1.67;1.00;;;22.40;34.10;;;;;;6216861;23;20176;-68
2023/04/22 14:01:24;;;;;;;0.82;0.82;;;22.20;34.30;;;;;;6216952;23;20196;-69
2023/04/22 14:03:52;;;;;;;1.45;0.80;;;22.10;34.20;;;;;;6216896;23;20172;-68
2023/04/22 14:06:21;;;;;;;1.02;1.02;;;21.90;34.30;;;;;;6216533;23;20176;-68
2023/04/22 14:08:47;;;;;;;1.17;1.17;;;21.60;34.40;;;;;;6216496;23;20506;-67
2023/04/22 14:11:14;;;;;;;1.25;1.25;;;21.60;34.40;;;;;;6216598;23;20255;-68
2023/04/22 14:13:41;;;;;;;1.75;1.65;;;21.60;33.50;;;;;;6216577;23;20203;-68
2023/04/22 14:16:08;;;;;;;1.30;1.20;;;21.50;35.00;;;;;;6216648;23;20618;-69
2023/04/22 14:18:36;;;;;;;0.80;0.80;;;21.70;34.70;;;;;;6216679;23;20218;-68
2023/04/22 14:21:05;;;;;;;1.00;1.00;;;21.70;34.30;;;;;;6216056;23;20572;-68
2023/04/22 14:23:33;;;;;;;1.10;1.02;;;21.70;34.00;;;;;;6216764;23;20169;-68
2023/04/22 14:26:00;;;;;;;1.42;1.27;;;21.70;34.20;;;;;;6217114;23;20552;-69
2023/04/22 14:28:27;;;;;;;0.95;0.95;;;21.50;35.40;;;;;;6219540;23;20209;-68
2023/04/22 14:30:54;;;;;;;0.98;0.98;;;21.60;35.80;;;;;;6220177;23;20305;-70
2023/04/22 14:33:23;;;;;;;1.00;0.98;;;21.70;35.30;;;;;;6216498;23;20192;-68
2023/04/22 14:35:50;;;;;;;1.30;1.20;;;21.60;35.10;;;;;;6216603;23;20172;-68
2023/04/22 14:38:17;;;;;;;0.82;0.82;;;21.50;34.60;;;;;;6215839;23;20448;-69
2023/04/22 14:40:45;;;;;;;1.00;1.00;;;21.40;35.10;;;;;;6216313;23;20250;-66
2023/04/22 14:43:12;;;;;;;0.98;0.90;;;21.30;35.50;;;;;;6216538;23;20168;-67
2023/04/22 14:45:39;;;;;;;1.13;0.80;;;21.10;35.10;;;;;;6216627;23;20180;-70
2023/04/22 14:48:06;;;;;;;0.70;0.70;;;21.10;35.90;;;;;;6216488;23;20509;-71
2023/04/22 14:50:33;;;;;;;0.73;0.73;;;21.00;36.50;;;;;;6215899;23;20208;-71
2023/04/22 14:53:00;;;;;;;0.82;0.82;;;20.90;36.80;;;;;;6215937;23;20723;-70
2023/04/22 14:55:26;;;;;;;1.13;1.02;;;20.90;36.90;;;;;;6216399;23;20160;-71
2023/04/22 14:57:56;;;;;;;0.90;0.90;;;20.90;36.90;;;;;;6216314;23;20184;-70
2023/04/22 15:00:23;;;;;;;0.70;0.70;;;20.90;37.30;;;;;;6216403;23;20196;-70
2023/04/22 15:02:50;;;;;;;0.70;0.70;;;21.00;38.10;;;;;;6216255;23;20178;-70
2023/04/22 15:05:16;;;;;;;0.95;0.95;;;21.00;37.30;;;;;;6216457;23;20195;-68
2023/04/22 15:07:43;;;;;;;1.00;1.00;;;20.90;38.00;;;;;;6216087;23;20186;-68
2023/04/22 15:10:10;;;;;;;1.05;1.05;;;20.80;38.40;;;;;;6216163;23;20784;-68
2023/04/22 15:12:37;;;;;;;0.90;0.90;;;20.80;38.40;;;;;;6216310;23;20180;-69
2023/04/22 15:15:06;;;;;;;0.98;0.98;;;20.60;39.30;;;;;;6216592;23;20184;-68
2023/04/22 15:17:33;;;;;;;2.30;1.63;;;20.40;40.10;;;;;;6217582;23;20187;-68
2023/04/22 15:20:03;;;;;;;2.50;2.40;;;20.30;40.40;;;;;;6219040;23;20178;-68
2023/04/22 15:22:29;;;;;;;2.40;2.20;;;20.20;39.70;;;;;;6217908;23;20259;-68
2023/04/22 15:24:56;;;;;;;1.90;1.80;;;20.20;40.10;;;;;;6218076;23;20183;-67
2023/04/22 15:27:23;;;;;;;2.05;1.95;;;20.10;40.60;;;;;;6216565;23;20230;-68
2023/04/22 15:29:50;;;;;;;1.55;1.55;;;20.00;40.90;;;;;;6216472;23;20176;-69
2023/04/22 15:32:18;;;;;;;1.70;1.60;;;20.00;41.40;;;;;;6215665;23;20551;-69
2023/04/22 15:34:45;;;;;;;1.40;1.30;;;19.90;41.80;;;;;;6216134;23;20195;-68
2023/04/22 15:37:13;;;;;;;2.22;1.83;;;19.80;42.80;;;;;;6216297;23;20176;-69
2023/04/22 15:39:40;;;;;;;1.63;1.60;;;19.70;43.10;;;;;;6216037;23;20176;-68
2023/04/22 15:42:06;;;;;;;2.17;2.00;;;19.40;43.10;;;;;;6216076;23;20188;-69
2023/04/22 15:44:33;;;;;;;2.42;2.22;;;19.20;45.00;;;;;;6216133;23;20176;-69
2023/04/22 15:47:00;;;;;;;2.63;2.40;;;19.00;46.30;;;;;;6216107;23;20184;-68
2023/04/22 15:49:28;;;;;;;2.38;2.22;;;18.70;49.40;;;;;;6216929;23;20160;-68
2023/04/22 15:51:55;;;;;;;3.13;2.30;;;18.40;52.00;;;;;;6218111;23;20199;-69
2023/04/22 15:54:21;;;;;;;2.05;1.95;;;18.20;53.60;;;;;;6217927;23;20637;-69
2023/04/22 15:56:48;;;;;;;2.50;2.30;;;18.10;54.60;;;;;;6218100;23;20179;-68
2023/04/22 15:59:15;;;;;;;2.97;2.75;;;18.00;56.10;;;;;;6217853;23;20160;-68
2023/04/22 16:01:41;;;;;;;2.40;2.30;;;17.90;60.50;;;;;;6217732;23;20673;-68
2023/04/22 16:04:08;;;;;;;2.17;2.08;;;17.80;62.30;;;;;;6218222;23;20168;-68
2023/04/22 16:06:39;;;;;;;2.63;2.40;;;17.70;61.40;;;;;;6217665;23;20271;-68
2023/04/22 16:09:06;;;;;;;2.20;2.10;;;17.60;61.70;;;;;;6217762;23;20157;-69
2023/04/22 16:11:32;;;;;;;1.98;1.88;;;17.60;64.50;;;;;;6217355;23;20205;-68
2023/04/22 16:13:59;;;;;;;1.77;1.73;;;17.50;64.10;;;;;;6217749;23;20192;-68
2023/04/22 16:16:26;;;;;;;2.10;2.00;;;17.50;67.30;;;;;;6217843;23;20501;-69
2023/04/22 16:18:53;;;;;;;2.00;1.90;;;17.50;70.20;;;;;;6218068;23;20176;-69
2023/04/22 16:21:20;;;;;;;1.85;1.50;;;17.50;70.30;;;;;;6217824;23;20196;-69
2023/04/22 16:23:48;;;;;;;1.77;1.70;;;17.50;70.00;;;;;;6217507;23;20626;-69
2023/04/22 16:26:15;;;;;;;2.03;1.92;;;17.40;68.80;;;;;;6217968;23;20240;-68
2023/04/22 16:28:41;;;;;;;1.45;1.45;;;17.30;71.00;;;;;;6217724;23;20177;-69
2023/04/22 16:31:10;;;;;;;1.48;1.48;;;17.30;71.70;;;;;;6217827;23;20200;-68
2023/04/22 16:33:37;;;;;;;1.42;1.42;;;17.20;73.50;;;;;;6217715;23;20250;-69
2023/04/22 16:36:04;;;;;;;1.40;1.35;;;17.20;75.20;;;;;;6217591;23;20480;-69
2023/04/22 16:38:31;;;;;;;1.48;1.40;;;17.00;74.30;;;;;;6217781;23;20176;-69
2023/04/22 16:40:59;;;;;;;1.30;1.30;;;16.90;77.80;;;;;;6217340;23;20204;-69
2023/04/22 16:43:25;;;;;;;1.30;1.30;;;16.80;79.70;;;;;;6217339;23;20630;-70
2023/04/22 16:45:52;;;;;;;1.38;1.38;;;16.80;80.10;;;;;;6217069;23;20641;-69
2023/04/22 16:48:19;;;;;;;1.30;1.30;;;16.70;78.90;;;;;;6217349;23;20177;-68
2023/04/22 16:50:45;;;;;;;1.20;1.20;;;16.60;80.20;;;;;;6217399;23;20196;-68
2023/04/22 16:53:13;;;;;;;1.20;1.20;;;16.50;82.90;;;;;;6217455;23;20184;-69
2023/04/22 16:55:40;;;;;;;1.65;1.55;;;16.40;82.40;;;;;;6218267;23;20188;-67
2023/04/22 16:58:08;;;;;;;1.63;1.55;;;16.30;85.20;;;;;;6217479;23;20172;-68
2023/04/22 17:00:35;;;;;;;1.20;1.20;;;16.20;88.90;;;;;;6216468;23;20551;-69
2023/04/22 17:03:01;;;;;;;1.15;1.15;;;16.10;91.80;;;;;;6217146;23;20183;-68
2023/04/22 17:05:28;;;;;;;1.10;1.10;;;16.00;93.40;;;;;;6217358;23;20629;-67
2023/04/22 17:07:55;;;;;;;1.88;1.55;;;16.00;94.30;;;;;;6217607;23;20187;-68
2023/04/22 17:10:21;;;;;;;1.10;1.10;;;15.90;96.50;;;;;;6217263;23;20258;-69
2023/04/22 17:12:48;;;;;;;2.42;1.35;;;15.90;95.80;;;;;;6217464;23;20246;-68
2023/04/22 17:15:16;;;;;;;1.55;1.45;;;15.80;97.10;;;;;;6217504;23;20161;-67
2023/04/22 17:17:43;;;;;;;1.20;1.20;;;15.70;95.80;;;;;;6217289;23;20180;-69
2023/04/22 17:20:10;;;;;;;1.13;1.13;;;15.70;96.10;;;;;;6217497;23;20180;-68
2023/04/22 17:22:37;;;;;;;1.05;1.05;;;15.60;95.10;;;;;;6217473;23;20192;-69
2023/04/22 17:25:05;;;;;;;1.17;1.17;;;15.50;95.80;;;;;;6217544;23;20184;-68
2023/04/22 17:27:32;;;;;;;1.08;1.08;;;15.50;94.50;;;;;;6217194;23;20212;-68
2023/04/22 17:29:58;;;;;;;1.25;1.15;;;15.40;99.90;;;;;;6217075;23;20157;-68
2023/04/22 17:32:27;;;;;;;1.00;1.00;;;15.40;99.90;;;;;;6217123;23;20177;-67
2023/04/22 17:34:53;;;;;;;1.00;1.00;;;15.30;99.90;;;;;;6217644;23;20173;-70
2023/04/22 17:37:20;;;;;;;1.23;1.17;;;15.20;99.90;;;;;;6217088;23;20227;-69
2023/04/22 17:39:47;;;;;;;1.15;1.15;;;15.10;99.90;;;;;;6217042;23;20512;-69
2023/04/22 17:42:13;;;;;;;1.10;1.10;;;15.10;99.90;;;;;;6217158;23;20197;-69
2023/04/22 17:44:40;;;;;;;1.50;1.40;;;15.10;99.90;;;;;;6217132;23;20177;-69
2023/04/22 17:47:07;;;;;;;1.30;1.10;;;15.00;99.90;;;;;;6216721;23;20638;-69
2023/04/22 17:49:35;;;;;;;1.02;1.02;;;14.90;99.90;;;;;;6216853;23;20487;-70
2023/04/22 17:52:01;;;;;;;1.30;1.30;;;14.80;99.90;;;;;;6217190;23;20197;-69
2023/04/22 17:54:28;;;;;;;0.95;0.95;;;14.70;99.90;;;;;;6216872;23;20231;-69
2023/04/22 17:56:55;;;;;;;1.00;1.00;;;14.60;99.90;;;;;;6216970;23;20192;-70
2023/04/22 17:59:21;;;;;;;0.95;0.95;;;14.60;99.90;;;;;;6216896;23;20231;-69
2023/04/22 18:01:48;;;;;;;1.10;1.10;;;14.40;99.90;;;;;;6217323;23;20534;-70
2023/04/22 18:04:15;;;;;;;1.35;1.30;;;14.30;99.90;;;;;;6218652;23;20169;-69
2023/04/22 18:06:43;;;;;;;0.80;0.80;;;14.20;99.90;;;;;;6217412;23;20180;-68
2023/04/22 18:09:10;;;;;;;1.00;1.00;;;14.10;99.90;;;;;;6217194;23;20173;-68
2023/04/22 18:11:37;;;;;;;1.00;1.00;;;14.10;99.90;;;;;;6216650;23;20211;-68
2023/04/22 18:14:04;;;;;;;1.13;1.13;;;14.00;99.90;;;;;;6216819;23;20204;-68
2023/04/22 18:16:31;;;;;;;1.20;1.20;;;13.90;99.90;;;;;;6217365;23;20188;-69
2023/04/22 18:18:58;;;;;;;1.08;1.08;;;13.80;99.90;;;;;;6217203;23;20177;-69
2023/04/22 18:21:26;;;;;;;1.10;1.10;;;13.80;99.90;;;;;;6216797;23;20713;-68
2023/04/22 18:23:54;;;;;;;0.88;0.88;;;13.70;99.90;;;;;;6216494;23;20467;-68
2023/04/22 18:26:21;;;;;;;1.20;1.20;;;13.60;99.90;;;;;;6216538;23;20184;-68
2023/04/22 18:28:48;;;;;;;1.10;1.05;;;13.60;99.90;;;;;;6216386;23;20661;-69
2023/04/22 18:31:15;;;;;;;1.15;1.10;;;13.60;99.90;;;;;;6216787;23;20199;-68
2023/04/22 18:33:42;;;;;;;1.92;1.10;;;13.60;99.90;;;;;;6216629;23;20196;-68
2023/04/22 18:36:09;;;;;;;1.15;1.15;;;13.50;99.90;;;;;;6216868;23;20183;-68
2023/04/22 18:38:37;;;;;;;1.20;1.20;;;13.50;99.90;;;;;;6217401;23;20185;-70
2023/04/22 18:41:05;;;;;;;1.10;1.10;;;13.50;99.90;;;;;;6216864;23;20197;-70
2023/04/22 18:43:32;;;;;;;1.20;1.20;;;13.40;99.90;;;;;;6216587;23;20169;-68
2023/04/22 18:45:59;;;;;;;1.50;1.50;;;13.40;99.90;;;;;;6216632;23;20195;-67
2023/04/22 18:48:25;;;;;;;1.40;1.20;;;13.40;99.90;;;;;;6216496;23;20184;-67
2023/04/22 18:50:52;;;;;;;1.23;1.23;;;13.40;99.90;;;;;;6216470;23;20197;-67
2023/04/22 18:53:19;;;;;;;1.75;1.70;;;13.30;99.90;;;;;;6216466;23;20192;-68
2023/04/22 18:55:46;;;;;;;1.50;1.50;;;13.30;99.90;;;;;;6216591;23;20177;-67
2023/04/22 18:58:15;;;;;;;2.10;1.98;;;13.30;99.90;;;;;;6216426;23;20180;-68
2023/04/22 19:00:41;;;;;;;2.17;1.98;;;13.20;99.90;;;;;;6216486;23;20246;-67
2023/04/22 19:03:08;;;;;;;1.75;1.75;;;13.20;99.90;;;;;;6216655;23;20174;-67
2023/04/22 19:05:37;;;;;;;2.00;1.83;;;13.10;99.90;;;;;;6216661;23;20164;-67
2023/04/22 19:08:04;;;;;;;1.40;1.40;;;13.10;99.90;;;;;;6216763;23;20184;-67
2023/04/22 19:10:30;;;;;;;1.65;1.55;;;13.10;99.90;;;;;;6216088;23;20200;-67
2023/04/22 19:12:58;;;;;;;2.88;1.70;;;13.00;99.90;;;;;;6216436;23;20173;-67
2023/04/22 19:15:26;;;;;;;1.92;1.83;;;13.00;99.90;;;;;;6216515;23;20195;-67
2023/04/22 19:17:53;;;;;;;1.70;1.60;;;12.90;99.90;;;;;;6216511;23;20177;-67
2023/04/22 19:20:20;;;;;;;1.80;1.80;;;12.80;99.90;;;;;;6216583;23;20203;-67
2023/04/22 19:22:47;;;;;;;1.77;1.77;;;12.80;99.90;;;;;;6217961;23;20196;-67
2023/04/22 19:25:14;;;;;;;1.30;1.30;;;12.80;99.90;;;;;;6216278;23;20173;-68